sensor_id;sensor_type;location;lat;lon;timestamp;temperature;humidity
52034;DHT22;38045;52.988;6.536;2023-11-19T00:00:20;10.80;83.70
52034;DHT22;38045;52.988;6.536;2023-11-19T00:02:46;10.80;83.80
52034;DHT22;38045;52.988;6.536;2023-11-19T00:05:13;10.80;83.80
52034;DHT22;38045;52.988;6.536;2023-11-19T00:07:39;10.90;83.90
52034;DHT22;38045;52.988;6.536;2023-11-19T00:10:13;10.90;83.90
52034;DHT22;38045;52.988;6.536;2023-11-19T00:12:41;11.00;83.90
52034;DHT22;38045;52.988;6.536;2023-11-19T00:15:07;11.00;83.90
52034;DHT22;38045;52.988;6.536;2023-11-19T00:17:40;11.10;83.90
52034;DHT22;38045;52.988;6.536;2023-11-19T00:20:13;11.10;83.90
52034;DHT22;38045;52.988;6.536;2023-11-19T00:22:40;11.10;84.00
52034;DHT22;38045;52.988;6.536;2023-11-19T00:25:07;11.30;84.00
52034;DHT22;38045;52.988;6.536;2023-11-19T00:27:33;11.30;83.90
52034;DHT22;38045;52.988;6.536;2023-11-19T00:29:58;11.30;83.90
52034;DHT22;38045;52.988;6.536;2023-11-19T00:32:24;11.30;83.90
52034;DHT22;38045;52.988;6.536;2023-11-19T00:34:49;11.40;83.90
52034;DHT22;38045;52.988;6.536;2023-11-19T00:37:15;11.50;84.00
52034;DHT22;38045;52.988;6.536;2023-11-19T00:39:42;11.50;84.00
52034;DHT22;38045;52.988;6.536;2023-11-19T00:42:07;11.50;83.90
52034;DHT22;38045;52.988;6.536;2023-11-19T00:44:33;11.50;83.90
52034;DHT22;38045;52.988;6.536;2023-11-19T00:46:59;11.60;83.90
52034;DHT22;38045;52.988;6.536;2023-11-19T00:49:27;11.70;83.90
52034;DHT22;38045;52.988;6.536;2023-11-19T00:51:53;11.70;83.90
52034;DHT22;38045;52.988;6.536;2023-11-19T00:54:18;11.70;83.90
52034;DHT22;38045;52.988;6.536;2023-11-19T00:56:44;11.70;83.90
52034;DHT22;38045;52.988;6.536;2023-11-19T00:59:10;11.70;83.90
52034;DHT22;38045;52.988;6.536;2023-11-19T01:01:36;11.70;83.80
52034;DHT22;38045;52.988;6.536;2023-11-19T01:04:02;11.70;83.80
52034;DHT22;38045;52.988;6.536;2023-11-19T01:06:31;11.80;83.80
52034;DHT22;38045;52.988;6.536;2023-11-19T01:08:57;11.80;83.70
52034;DHT22;38045;52.988;6.536;2023-11-19T01:11:24;11.80;83.80
52034;DHT22;38045;52.988;6.536;2023-11-19T01:13:51;11.70;83.70
52034;DHT22;38045;52.988;6.536;2023-11-19T01:16:18;11.70;83.80
52034;DHT22;38045;52.988;6.536;2023-11-19T01:18:44;11.70;83.70
52034;DHT22;38045;52.988;6.536;2023-11-19T01:21:10;11.80;83.70
52034;DHT22;38045;52.988;6.536;2023-11-19T01:23:36;11.80;83.80
52034;DHT22;38045;52.988;6.536;2023-11-19T01:26:02;11.80;83.70
52034;DHT22;38045;52.988;6.536;2023-11-19T01:28:28;11.90;83.80
52034;DHT22;38045;52.988;6.536;2023-11-19T01:30:54;11.90;83.70
52034;DHT22;38045;52.988;6.536;2023-11-19T01:33:19;11.90;83.70
52034;DHT22;38045;52.988;6.536;2023-11-19T01:35:46;11.90;83.70
52034;DHT22;38045;52.988;6.536;2023-11-19T01:38:12;11.90;83.70
52034;DHT22;38045;52.988;6.536;2023-11-19T01:40:37;11.90;83.60
52034;DHT22;38045;52.988;6.536;2023-11-19T01:43:03;11.90;83.60
52034;DHT22;38045;52.988;6.536;2023-11-19T01:45:30;11.90;83.60
52034;DHT22;38045;52.988;6.536;2023-11-19T01:48:00;11.90;83.50
52034;DHT22;38045;52.988;6.536;2023-11-19T01:50:29;11.90;83.40
52034;DHT22;38045;52.988;6.536;2023-11-19T01:52:55;11.90;83.40
52034;DHT22;38045;52.988;6.536;2023-11-19T01:55:24;11.90;83.30
52034;DHT22;38045;52.988;6.536;2023-11-19T01:57:51;11.90;83.20
52034;DHT22;38045;52.988;6.536;2023-11-19T02:00:18;11.90;83.20
52034;DHT22;38045;52.988;6.536;2023-11-19T02:02:46;11.90;83.10
52034;DHT22;38045;52.988;6.536;2023-11-19T02:05:13;11.90;83.10
52034;DHT22;38045;52.988;6.536;2023-11-19T02:07:39;11.80;83.10
52034;DHT22;38045;52.988;6.536;2023-11-19T02:10:06;11.80;83.10
52034;DHT22;38045;52.988;6.536;2023-11-19T02:12:32;11.80;83.00
52034;DHT22;38045;52.988;6.536;2023-11-19T02:15:05;11.80;82.90
52034;DHT22;38045;52.988;6.536;2023-11-19T02:17:31;11.80;82.90
52034;DHT22;38045;52.988;6.536;2023-11-19T02:19:57;11.90;82.80
52034;DHT22;38045;52.988;6.536;2023-11-19T02:22:24;11.90;82.70
52034;DHT22;38045;52.988;6.536;2023-11-19T02:24:51;11.90;82.60
52034;DHT22;38045;52.988;6.536;2023-11-19T02:27:52;11.90;82.60
52034;DHT22;38045;52.988;6.536;2023-11-19T02:30:21;11.90;82.30
52034;DHT22;38045;52.988;6.536;2023-11-19T02:32:58;11.90;82.40
52034;DHT22;38045;52.988;6.536;2023-11-19T02:35:27;11.90;82.20
52034;DHT22;38045;52.988;6.536;2023-11-19T02:37:56;11.90;82.20
52034;DHT22;38045;52.988;6.536;2023-11-19T02:40:21;11.90;82.20
52034;DHT22;38045;52.988;6.536;2023-11-19T02:42:49;11.90;82.10
52034;DHT22;38045;52.988;6.536;2023-11-19T02:45:15;11.90;82.00
52034;DHT22;38045;52.988;6.536;2023-11-19T02:47:41;11.90;81.80
52034;DHT22;38045;52.988;6.536;2023-11-19T02:50:10;11.90;81.90
52034;DHT22;38045;52.988;6.536;2023-11-19T02:52:44;11.90;81.90
52034;DHT22;38045;52.988;6.536;2023-11-19T02:55:11;11.90;81.90
52034;DHT22;38045;52.988;6.536;2023-11-19T02:57:40;11.90;81.80
52034;DHT22;38045;52.988;6.536;2023-11-19T03:00:22;11.90;81.70
52034;DHT22;38045;52.988;6.536;2023-11-19T03:02:50;11.90;81.60
52034;DHT22;38045;52.988;6.536;2023-11-19T03:05:30;11.90;81.50
52034;DHT22;38045;52.988;6.536;2023-11-19T03:07:56;11.90;81.30
52034;DHT22;38045;52.988;6.536;2023-11-19T03:10:22;11.90;81.30
52034;DHT22;38045;52.988;6.536;2023-11-19T03:12:49;11.90;81.20
52034;DHT22;38045;52.988;6.536;2023-11-19T03:15:15;11.90;81.20
52034;DHT22;38045;52.988;6.536;2023-11-19T03:17:42;11.90;81.10
52034;DHT22;38045;52.988;6.536;2023-11-19T03:20:11;11.90;81.10
52034;DHT22;38045;52.988;6.536;2023-11-19T03:22:41;11.90;81.00
52034;DHT22;38045;52.988;6.536;2023-11-19T03:25:10;11.90;80.90
52034;DHT22;38045;52.988;6.536;2023-11-19T03:27:39;11.90;80.70
52034;DHT22;38045;52.988;6.536;2023-11-19T03:30:08;11.90;80.60
52034;DHT22;38045;52.988;6.536;2023-11-19T03:32:35;11.90;80.70
52034;DHT22;38045;52.988;6.536;2023-11-19T03:35:02;11.90;80.50
52034;DHT22;38045;52.988;6.536;2023-11-19T03:37:29;11.90;80.70
52034;DHT22;38045;52.988;6.536;2023-11-19T03:39:56;11.90;80.60
52034;DHT22;38045;52.988;6.536;2023-11-19T03:42:28;11.90;80.60
52034;DHT22;38045;52.988;6.536;2023-11-19T03:44:53;11.80;80.50
52034;DHT22;38045;52.988;6.536;2023-11-19T03:47:19;11.80;80.70
52034;DHT22;38045;52.988;6.536;2023-11-19T03:49:49;11.90;80.60
52034;DHT22;38045;52.988;6.536;2023-11-19T03:52:15;11.90;80.20
52034;DHT22;38045;52.988;6.536;2023-11-19T03:54:41;11.90;80.10
52034;DHT22;38045;52.988;6.536;2023-11-19T03:57:06;11.90;80.20
52034;DHT22;38045;52.988;6.536;2023-11-19T03:59:32;11.90;80.20
52034;DHT22;38045;52.988;6.536;2023-11-19T04:01:58;11.90;80.10
52034;DHT22;38045;52.988;6.536;2023-11-19T04:04:26;11.90;79.90
52034;DHT22;38045;52.988;6.536;2023-11-19T04:06:53;11.90;79.90
52034;DHT22;38045;52.988;6.536;2023-11-19T04:09:18;11.90;79.80
52034;DHT22;38045;52.988;6.536;2023-11-19T04:11:44;11.90;79.70
52034;DHT22;38045;52.988;6.536;2023-11-19T04:14:12;11.90;79.80
52034;DHT22;38045;52.988;6.536;2023-11-19T04:16:38;11.90;79.90
52034;DHT22;38045;52.988;6.536;2023-11-19T04:19:05;11.80;79.90
52034;DHT22;38045;52.988;6.536;2023-11-19T04:21:30;11.80;79.60
52034;DHT22;38045;52.988;6.536;2023-11-19T04:23:56;11.80;79.70
52034;DHT22;38045;52.988;6.536;2023-11-19T04:26:22;11.80;79.60
52034;DHT22;38045;52.988;6.536;2023-11-19T04:28:47;11.80;79.50
52034;DHT22;38045;52.988;6.536;2023-11-19T04:31:15;11.80;79.40
52034;DHT22;38045;52.988;6.536;2023-11-19T04:33:41;11.70;79.30
52034;DHT22;38045;52.988;6.536;2023-11-19T04:36:08;11.70;79.20
52034;DHT22;38045;52.988;6.536;2023-11-19T04:38:33;11.70;78.90
52034;DHT22;38045;52.988;6.536;2023-11-19T04:41:00;11.70;79.10
52034;DHT22;38045;52.988;6.536;2023-11-19T04:43:25;11.70;79.00
52034;DHT22;38045;52.988;6.536;2023-11-19T04:45:51;11.70;79.10
52034;DHT22;38045;52.988;6.536;2023-11-19T04:48:16;11.60;78.90
52034;DHT22;38045;52.988;6.536;2023-11-19T04:50:42;11.50;78.80
52034;DHT22;38045;52.988;6.536;2023-11-19T04:53:08;11.50;78.70
52034;DHT22;38045;52.988;6.536;2023-11-19T04:55:33;11.50;78.70
52034;DHT22;38045;52.988;6.536;2023-11-19T04:57:59;11.50;78.70
52034;DHT22;38045;52.988;6.536;2023-11-19T05:00:24;11.50;78.20
52034;DHT22;38045;52.988;6.536;2023-11-19T05:02:51;11.50;78.50
52034;DHT22;38045;52.988;6.536;2023-11-19T05:05:16;11.50;78.30
52034;DHT22;38045;52.988;6.536;2023-11-19T05:07:43;11.50;78.30
52034;DHT22;38045;52.988;6.536;2023-11-19T05:10:08;11.50;78.20
52034;DHT22;38045;52.988;6.536;2023-11-19T05:12:34;11.50;78.10
52034;DHT22;38045;52.988;6.536;2023-11-19T05:15:00;11.50;78.20
52034;DHT22;38045;52.988;6.536;2023-11-19T05:17:26;11.50;77.90
52034;DHT22;38045;52.988;6.536;2023-11-19T05:19:51;11.50;77.90
52034;DHT22;38045;52.988;6.536;2023-11-19T05:22:17;11.50;77.90
52034;DHT22;38045;52.988;6.536;2023-11-19T05:24:43;11.50;77.60
52034;DHT22;38045;52.988;6.536;2023-11-19T05:27:08;11.60;77.50
52034;DHT22;38045;52.988;6.536;2023-11-19T05:29:37;11.60;77.20
52034;DHT22;38045;52.988;6.536;2023-11-19T05:32:05;11.60;77.60
52034;DHT22;38045;52.988;6.536;2023-11-19T05:34:30;11.70;77.30
52034;DHT22;38045;52.988;6.536;2023-11-19T05:36:56;11.60;77.40
52034;DHT22;38045;52.988;6.536;2023-11-19T05:39:22;11.60;76.70
52034;DHT22;38045;52.988;6.536;2023-11-19T05:41:48;11.60;76.80
52034;DHT22;38045;52.988;6.536;2023-11-19T05:44:14;11.60;77.20
52034;DHT22;38045;52.988;6.536;2023-11-19T05:46:39;11.50;77.20
52034;DHT22;38045;52.988;6.536;2023-11-19T05:49:11;11.50;77.00
52034;DHT22;38045;52.988;6.536;2023-11-19T05:51:40;11.50;77.00
52034;DHT22;38045;52.988;6.536;2023-11-19T05:54:09;11.50;76.70
52034;DHT22;38045;52.988;6.536;2023-11-19T05:56:36;11.50;77.00
52034;DHT22;38045;52.988;6.536;2023-11-19T05:59:02;11.50;76.50
52034;DHT22;38045;52.988;6.536;2023-11-19T06:01:34;11.50;76.80
52034;DHT22;38045;52.988;6.536;2023-11-19T06:03:59;11.50;76.70
52034;DHT22;38045;52.988;6.536;2023-11-19T06:06:26;11.50;76.50
52034;DHT22;38045;52.988;6.536;2023-11-19T06:08:52;11.40;76.60
52034;DHT22;38045;52.988;6.536;2023-11-19T06:11:17;11.50;76.30
52034;DHT22;38045;52.988;6.536;2023-11-19T06:13:45;11.50;76.40
52034;DHT22;38045;52.988;6.536;2023-11-19T06:16:11;11.40;76.60
52034;DHT22;38045;52.988;6.536;2023-11-19T06:18:37;11.40;76.50
52034;DHT22;38045;52.988;6.536;2023-11-19T06:21:03;11.40;76.40
52034;DHT22;38045;52.988;6.536;2023-11-19T06:23:29;11.40;76.40
52034;DHT22;38045;52.988;6.536;2023-11-19T06:25:54;11.40;76.40
52034;DHT22;38045;52.988;6.536;2023-11-19T06:28:20;11.40;76.20
52034;DHT22;38045;52.988;6.536;2023-11-19T06:30:45;11.40;76.20
52034;DHT22;38045;52.988;6.536;2023-11-19T06:33:14;11.40;76.30
52034;DHT22;38045;52.988;6.536;2023-11-19T06:35:40;11.30;76.10
52034;DHT22;38045;52.988;6.536;2023-11-19T06:38:06;11.30;76.30
52034;DHT22;38045;52.988;6.536;2023-11-19T06:40:32;11.30;76.30
52034;DHT22;38045;52.988;6.536;2023-11-19T06:42:58;11.30;76.00
52034;DHT22;38045;52.988;6.536;2023-11-19T06:45:24;11.30;76.20
52034;DHT22;38045;52.988;6.536;2023-11-19T06:47:49;11.30;75.50
52034;DHT22;38045;52.988;6.536;2023-11-19T06:50:15;11.30;75.80
52034;DHT22;38045;52.988;6.536;2023-11-19T06:52:41;11.30;76.10
52034;DHT22;38045;52.988;6.536;2023-11-19T06:55:07;11.30;76.00
52034;DHT22;38045;52.988;6.536;2023-11-19T06:57:33;11.30;75.80
52034;DHT22;38045;52.988;6.536;2023-11-19T06:59:59;11.30;76.00
52034;DHT22;38045;52.988;6.536;2023-11-19T07:02:25;11.30;76.00
52034;DHT22;38045;52.988;6.536;2023-11-19T07:04:51;11.30;76.00
52034;DHT22;38045;52.988;6.536;2023-11-19T07:07:16;11.30;75.50
52034;DHT22;38045;52.988;6.536;2023-11-19T07:09:42;11.30;75.70
52034;DHT22;38045;52.988;6.536;2023-11-19T07:12:08;11.30;75.70
52034;DHT22;38045;52.988;6.536;2023-11-19T07:14:34;11.40;75.90
52034;DHT22;38045;52.988;6.536;2023-11-19T07:17:00;11.30;75.50
52034;DHT22;38045;52.988;6.536;2023-11-19T07:19:26;11.40;75.30
52034;DHT22;38045;52.988;6.536;2023-11-19T07:21:51;11.40;75.40
52034;DHT22;38045;52.988;6.536;2023-11-19T07:24:20;11.40;75.40
52034;DHT22;38045;52.988;6.536;2023-11-19T07:26:47;11.30;75.50
52034;DHT22;38045;52.988;6.536;2023-11-19T07:29:13;11.30;75.70
52034;DHT22;38045;52.988;6.536;2023-11-19T07:31:40;11.30;75.40
52034;DHT22;38045;52.988;6.536;2023-11-19T07:34:05;11.30;75.20
52034;DHT22;38045;52.988;6.536;2023-11-19T07:36:32;11.30;75.00
52034;DHT22;38045;52.988;6.536;2023-11-19T07:38:58;11.40;74.90
52034;DHT22;38045;52.988;6.536;2023-11-19T07:41:24;11.30;75.20
52034;DHT22;38045;52.988;6.536;2023-11-19T07:43:50;11.30;75.10
52034;DHT22;38045;52.988;6.536;2023-11-19T07:46:17;11.30;75.20
52034;DHT22;38045;52.988;6.536;2023-11-19T07:48:45;11.30;75.00
52034;DHT22;38045;52.988;6.536;2023-11-19T07:51:13;11.30;75.00
52034;DHT22;38045;52.988;6.536;2023-11-19T07:53:39;11.20;75.00
52034;DHT22;38045;52.988;6.536;2023-11-19T07:56:06;11.20;75.10
52034;DHT22;38045;52.988;6.536;2023-11-19T07:58:32;11.20;75.00
52034;DHT22;38045;52.988;6.536;2023-11-19T08:00:58;11.10;75.00
52034;DHT22;38045;52.988;6.536;2023-11-19T08:03:23;11.20;75.20
52034;DHT22;38045;52.988;6.536;2023-11-19T08:05:49;11.20;75.20
52034;DHT22;38045;52.988;6.536;2023-11-19T08:08:15;11.10;75.40
52034;DHT22;38045;52.988;6.536;2023-11-19T08:10:40;11.10;75.40
52034;DHT22;38045;52.988;6.536;2023-11-19T08:13:06;11.20;75.30
52034;DHT22;38045;52.988;6.536;2023-11-19T08:15:33;11.20;75.20
52034;DHT22;38045;52.988;6.536;2023-11-19T08:17:58;11.20;75.30
52034;DHT22;38045;52.988;6.536;2023-11-19T08:20:24;11.30;75.10
52034;DHT22;38045;52.988;6.536;2023-11-19T08:22:49;11.30;74.80
52034;DHT22;38045;52.988;6.536;2023-11-19T08:25:15;11.30;75.10
52034;DHT22;38045;52.988;6.536;2023-11-19T08:27:41;11.30;75.20
52034;DHT22;38045;52.988;6.536;2023-11-19T08:30:07;11.30;75.10
52034;DHT22;38045;52.988;6.536;2023-11-19T08:32:33;11.30;75.20
52034;DHT22;38045;52.988;6.536;2023-11-19T08:34:59;11.30;75.10
52034;DHT22;38045;52.988;6.536;2023-11-19T08:37:24;11.30;75.20
52034;DHT22;38045;52.988;6.536;2023-11-19T08:39:50;11.30;75.30
52034;DHT22;38045;52.988;6.536;2023-11-19T08:42:17;11.30;75.50
52034;DHT22;38045;52.988;6.536;2023-11-19T08:44:43;11.20;75.70
52034;DHT22;38045;52.988;6.536;2023-11-19T08:47:10;11.10;75.90
52034;DHT22;38045;52.988;6.536;2023-11-19T08:49:36;11.10;75.90
52034;DHT22;38045;52.988;6.536;2023-11-19T08:52:02;11.10;76.10
52034;DHT22;38045;52.988;6.536;2023-11-19T08:54:27;11.10;76.20
52034;DHT22;38045;52.988;6.536;2023-11-19T08:56:53;11.10;76.10
52034;DHT22;38045;52.988;6.536;2023-11-19T08:59:18;11.10;76.10
52034;DHT22;38045;52.988;6.536;2023-11-19T09:01:44;11.10;76.20
52034;DHT22;38045;52.988;6.536;2023-11-19T09:04:10;11.10;76.20
52034;DHT22;38045;52.988;6.536;2023-11-19T09:06:36;11.10;76.20
52034;DHT22;38045;52.988;6.536;2023-11-19T09:09:02;11.10;76.20
52034;DHT22;38045;52.988;6.536;2023-11-19T09:11:28;11.30;75.90
52034;DHT22;38045;52.988;6.536;2023-11-19T09:13:54;11.30;76.10
52034;DHT22;38045;52.988;6.536;2023-11-19T09:16:20;11.30;76.00
52034;DHT22;38045;52.988;6.536;2023-11-19T09:18:45;11.40;75.80
52034;DHT22;38045;52.988;6.536;2023-11-19T09:21:11;11.40;75.70
52034;DHT22;38045;52.988;6.536;2023-11-19T09:23:37;11.50;75.70
52034;DHT22;38045;52.988;6.536;2023-11-19T09:26:05;11.50;75.60
52034;DHT22;38045;52.988;6.536;2023-11-19T09:28:31;11.50;75.40
52034;DHT22;38045;52.988;6.536;2023-11-19T09:30:57;11.50;75.50
52034;DHT22;38045;52.988;6.536;2023-11-19T09:33:24;11.50;75.10
52034;DHT22;38045;52.988;6.536;2023-11-19T09:35:50;11.50;75.00
52034;DHT22;38045;52.988;6.536;2023-11-19T09:38:16;11.50;75.00
52034;DHT22;38045;52.988;6.536;2023-11-19T09:40:42;11.60;74.80
52034;DHT22;38045;52.988;6.536;2023-11-19T09:43:08;11.60;74.80
52034;DHT22;38045;52.988;6.536;2023-11-19T09:45:50;11.70;75.10
52034;DHT22;38045;52.988;6.536;2023-11-19T09:48:19;11.60;75.00
52034;DHT22;38045;52.988;6.536;2023-11-19T09:50:48;11.60;75.10
52034;DHT22;38045;52.988;6.536;2023-11-19T09:53:15;11.60;75.00
52034;DHT22;38045;52.988;6.536;2023-11-19T09:55:41;11.60;75.20
52034;DHT22;38045;52.988;6.536;2023-11-19T09:58:08;11.60;74.60
52034;DHT22;38045;52.988;6.536;2023-11-19T10:00:34;11.70;75.00
52034;DHT22;38045;52.988;6.536;2023-11-19T10:03:00;11.70;75.10
52034;DHT22;38045;52.988;6.536;2023-11-19T10:05:26;11.70;74.70
52034;DHT22;38045;52.988;6.536;2023-11-19T10:07:52;11.70;74.60
52034;DHT22;38045;52.988;6.536;2023-11-19T10:10:18;11.70;74.60
52034;DHT22;38045;52.988;6.536;2023-11-19T10:12:50;11.70;74.60
52034;DHT22;38045;52.988;6.536;2023-11-19T10:15:23;11.70;74.70
52034;DHT22;38045;52.988;6.536;2023-11-19T10:17:50;11.60;75.10
52034;DHT22;38045;52.988;6.536;2023-11-19T10:20:16;11.50;75.40
52034;DHT22;38045;52.988;6.536;2023-11-19T10:22:41;11.50;75.60
52034;DHT22;38045;52.988;6.536;2023-11-19T10:25:28;11.50;75.70
52034;DHT22;38045;52.988;6.536;2023-11-19T10:27:55;11.50;75.60
52034;DHT22;38045;52.988;6.536;2023-11-19T10:30:22;11.50;75.60
52034;DHT22;38045;52.988;6.536;2023-11-19T10:33:11;11.50;75.70
52034;DHT22;38045;52.988;6.536;2023-11-19T10:38:22;11.50;75.80
52034;DHT22;38045;52.988;6.536;2023-11-19T10:40:49;11.40;76.00
52034;DHT22;38045;52.988;6.536;2023-11-19T10:43:16;11.30;76.60
52034;DHT22;38045;52.988;6.536;2023-11-19T10:45:42;11.10;77.00
52034;DHT22;38045;52.988;6.536;2023-11-19T10:48:08;11.10;77.00
52034;DHT22;38045;52.988;6.536;2023-11-19T10:50:36;11.00;77.50
52034;DHT22;38045;52.988;6.536;2023-11-19T10:53:02;10.90;77.70
52034;DHT22;38045;52.988;6.536;2023-11-19T10:55:33;10.90;78.00
52034;DHT22;38045;52.988;6.536;2023-11-19T10:58:05;10.90;77.90
52034;DHT22;38045;52.988;6.536;2023-11-19T11:03:17;11.00;77.60
52034;DHT22;38045;52.988;6.536;2023-11-19T11:05:46;11.00;77.50
52034;DHT22;38045;52.988;6.536;2023-11-19T11:08:13;11.10;77.50
52034;DHT22;38045;52.988;6.536;2023-11-19T11:10:53;11.10;77.60
52034;DHT22;38045;52.988;6.536;2023-11-19T11:13:19;11.10;77.60
52034;DHT22;38045;52.988;6.536;2023-11-19T11:15:49;11.10;77.70
52034;DHT22;38045;52.988;6.536;2023-11-19T11:18:15;11.10;78.00
52034;DHT22;38045;52.988;6.536;2023-11-19T11:20:44;11.30;78.00
52034;DHT22;38045;52.988;6.536;2023-11-19T11:26:35;11.40;77.70
52034;DHT22;38045;52.988;6.536;2023-11-19T11:29:14;11.40;77.60
52034;DHT22;38045;52.988;6.536;2023-11-19T11:37:33;11.50;77.70
52034;DHT22;38045;52.988;6.536;2023-11-19T11:40:02;11.50;77.70
52034;DHT22;38045;52.988;6.536;2023-11-19T11:42:37;11.50;77.40
52034;DHT22;38045;52.988;6.536;2023-11-19T11:45:09;11.50;77.30
52034;DHT22;38045;52.988;6.536;2023-11-19T11:50:19;11.50;77.20
52034;DHT22;38045;52.988;6.536;2023-11-19T11:55:39;11.50;77.20
52034;DHT22;38045;52.988;6.536;2023-11-19T11:58:30;11.60;76.70
52034;DHT22;38045;52.988;6.536;2023-11-19T12:01:01;11.70;76.80
52034;DHT22;38045;52.988;6.536;2023-11-19T12:03:28;11.70;76.80
52034;DHT22;38045;52.988;6.536;2023-11-19T12:05:54;11.70;76.80
52034;DHT22;38045;52.988;6.536;2023-11-19T12:08:25;11.70;76.80
52034;DHT22;38045;52.988;6.536;2023-11-19T12:10:53;11.70;76.90
52034;DHT22;38045;52.988;6.536;2023-11-19T12:13:20;11.70;76.80
52034;DHT22;38045;52.988;6.536;2023-11-19T12:18:29;11.70;76.90
52034;DHT22;38045;52.988;6.536;2023-11-19T12:20:55;11.70;77.00
52034;DHT22;38045;52.988;6.536;2023-11-19T12:23:22;11.60;77.20
52034;DHT22;38045;52.988;6.536;2023-11-19T12:25:47;11.60;77.10
52034;DHT22;38045;52.988;6.536;2023-11-19T12:28:14;11.60;77.20
52034;DHT22;38045;52.988;6.536;2023-11-19T12:30:40;11.60;77.20
52034;DHT22;38045;52.988;6.536;2023-11-19T12:33:09;11.60;77.20
52034;DHT22;38045;52.988;6.536;2023-11-19T12:35:42;11.60;77.30
52034;DHT22;38045;52.988;6.536;2023-11-19T12:38:18;11.60;77.20
52034;DHT22;38045;52.988;6.536;2023-11-19T12:40:45;11.60;76.90
52034;DHT22;38045;52.988;6.536;2023-11-19T12:43:11;11.60;77.10
52034;DHT22;38045;52.988;6.536;2023-11-19T12:45:46;11.70;77.00
52034;DHT22;38045;52.988;6.536;2023-11-19T12:48:11;11.70;77.00
52034;DHT22;38045;52.988;6.536;2023-11-19T12:50:54;11.70;77.10
52034;DHT22;38045;52.988;6.536;2023-11-19T12:53:21;11.70;77.00
52034;DHT22;38045;52.988;6.536;2023-11-19T12:55:48;11.70;76.80
52034;DHT22;38045;52.988;6.536;2023-11-19T13:01:04;11.70;76.80
52034;DHT22;38045;52.988;6.536;2023-11-19T13:03:35;11.70;76.70
52034;DHT22;38045;52.988;6.536;2023-11-19T13:06:05;11.70;76.30
52034;DHT22;38045;52.988;6.536;2023-11-19T13:08:41;11.70;76.50
52034;DHT22;38045;52.988;6.536;2023-11-19T13:11:07;11.70;76.50
52034;DHT22;38045;52.988;6.536;2023-11-19T13:13:55;11.70;76.30
52034;DHT22;38045;52.988;6.536;2023-11-19T13:16:21;11.70;76.30
52034;DHT22;38045;52.988;6.536;2023-11-19T13:18:47;11.70;76.40
52034;DHT22;38045;52.988;6.536;2023-11-19T13:21:13;11.70;76.10
52034;DHT22;38045;52.988;6.536;2023-11-19T13:23:38;11.60;76.20
52034;DHT22;38045;52.988;6.536;2023-11-19T13:26:04;11.50;76.30
52034;DHT22;38045;52.988;6.536;2023-11-19T13:28:30;11.50;76.50
52034;DHT22;38045;52.988;6.536;2023-11-19T13:30:56;11.50;76.50
52034;DHT22;38045;52.988;6.536;2023-11-19T13:33:22;11.50;76.40
52034;DHT22;38045;52.988;6.536;2023-11-19T13:35:47;11.50;76.50
52034;DHT22;38045;52.988;6.536;2023-11-19T13:38:13;11.50;76.40
52034;DHT22;38045;52.988;6.536;2023-11-19T13:40:38;11.50;76.40
52034;DHT22;38045;52.988;6.536;2023-11-19T13:43:04;11.50;76.50
52034;DHT22;38045;52.988;6.536;2023-11-19T13:45:30;11.50;76.50
52034;DHT22;38045;52.988;6.536;2023-11-19T13:47:56;11.50;76.60
52034;DHT22;38045;52.988;6.536;2023-11-19T13:50:21;11.50;76.70
52034;DHT22;38045;52.988;6.536;2023-11-19T13:52:48;11.50;76.60
52034;DHT22;38045;52.988;6.536;2023-11-19T13:55:14;11.40;76.70
52034;DHT22;38045;52.988;6.536;2023-11-19T13:57:41;11.40;76.70
52034;DHT22;38045;52.988;6.536;2023-11-19T14:00:08;11.40;76.60
52034;DHT22;38045;52.988;6.536;2023-11-19T14:02:42;11.40;76.60
52034;DHT22;38045;52.988;6.536;2023-11-19T14:05:11;11.40;76.50
52034;DHT22;38045;52.988;6.536;2023-11-19T14:07:38;11.50;76.40
52034;DHT22;38045;52.988;6.536;2023-11-19T14:10:04;11.50;76.40
52034;DHT22;38045;52.988;6.536;2023-11-19T14:12:35;11.50;76.40
52034;DHT22;38045;52.988;6.536;2023-11-19T14:15:04;11.50;76.50
52034;DHT22;38045;52.988;6.536;2023-11-19T14:17:32;11.50;76.40
52034;DHT22;38045;52.988;6.536;2023-11-19T14:19:57;11.50;76.40
52034;DHT22;38045;52.988;6.536;2023-11-19T14:22:23;11.50;76.40
52034;DHT22;38045;52.988;6.536;2023-11-19T14:24:50;11.50;76.30
52034;DHT22;38045;52.988;6.536;2023-11-19T14:27:15;11.50;76.00
52034;DHT22;38045;52.988;6.536;2023-11-19T14:29:42;11.50;76.00
52034;DHT22;38045;52.988;6.536;2023-11-19T14:32:08;11.50;75.80
52034;DHT22;38045;52.988;6.536;2023-11-19T14:34:34;11.50;75.80
52034;DHT22;38045;52.988;6.536;2023-11-19T14:36:59;11.50;75.70
52034;DHT22;38045;52.988;6.536;2023-11-19T14:39:26;11.50;75.90
52034;DHT22;38045;52.988;6.536;2023-11-19T14:41:52;11.50;75.90
52034;DHT22;38045;52.988;6.536;2023-11-19T14:44:19;11.50;75.50
52034;DHT22;38045;52.988;6.536;2023-11-19T14:46:46;11.40;75.70
52034;DHT22;38045;52.988;6.536;2023-11-19T14:49:12;11.40;75.90
52034;DHT22;38045;52.988;6.536;2023-11-19T14:51:39;11.40;75.90
52034;DHT22;38045;52.988;6.536;2023-11-19T14:54:05;11.40;75.80
52034;DHT22;38045;52.988;6.536;2023-11-19T14:56:31;11.30;75.90
52034;DHT22;38045;52.988;6.536;2023-11-19T14:58:57;11.30;75.80
52034;DHT22;38045;52.988;6.536;2023-11-19T15:01:22;11.40;75.50
52034;DHT22;38045;52.988;6.536;2023-11-19T15:03:48;11.40;75.60
52034;DHT22;38045;52.988;6.536;2023-11-19T15:06:13;11.30;75.60
52034;DHT22;38045;52.988;6.536;2023-11-19T15:08:40;11.30;75.60
52034;DHT22;38045;52.988;6.536;2023-11-19T15:11:07;11.30;75.70
52034;DHT22;38045;52.988;6.536;2023-11-19T15:13:34;11.30;75.60
52034;DHT22;38045;52.988;6.536;2023-11-19T15:16:02;11.30;75.70
52034;DHT22;38045;52.988;6.536;2023-11-19T15:18:31;11.20;75.90
52034;DHT22;38045;52.988;6.536;2023-11-19T15:20:56;11.10;76.30
52034;DHT22;38045;52.988;6.536;2023-11-19T15:23:22;11.10;76.20
52034;DHT22;38045;52.988;6.536;2023-11-19T15:25:47;11.00;77.00
52034;DHT22;38045;52.988;6.536;2023-11-19T15:28:14;10.90;76.60
52034;DHT22;38045;52.988;6.536;2023-11-19T15:30:40;10.90;76.80
52034;DHT22;38045;52.988;6.536;2023-11-19T15:33:06;10.80;77.20
52034;DHT22;38045;52.988;6.536;2023-11-19T15:35:31;10.70;77.20
52034;DHT22;38045;52.988;6.536;2023-11-19T15:37:57;10.70;77.70
52034;DHT22;38045;52.988;6.536;2023-11-19T15:40:22;10.60;77.90
52034;DHT22;38045;52.988;6.536;2023-11-19T15:42:48;10.60;78.40
52034;DHT22;38045;52.988;6.536;2023-11-19T15:45:14;10.60;77.90
52034;DHT22;38045;52.988;6.536;2023-11-19T15:47:41;10.60;78.00
52034;DHT22;38045;52.988;6.536;2023-11-19T15:50:07;10.60;77.90
52034;DHT22;38045;52.988;6.536;2023-11-19T15:52:35;10.60;78.20
52034;DHT22;38045;52.988;6.536;2023-11-19T15:55:01;10.50;78.60